sensor_id;sensor_type;location;lat;lon;timestamp;P1;durP1;ratioP1;P2;durP2;ratioP2
45049;SDS011;61798;48.048;-1.928;2024-03-07T00:01:16;9.98;;;4.10;;
45049;SDS011;61798;48.048;-1.928;2024-03-07T00:03:22;11.55;;;3.92;;
45049;SDS011;61798;48.048;-1.928;2024-03-07T00:05:29;7.22;;;3.20;;
45049;SDS011;61798;48.048;-1.928;2024-03-07T00:07:36;9.45;;;3.60;;
45049;SDS011;61798;48.048;-1.928;2024-03-07T00:09:42;13.10;;;4.53;;
45049;SDS011;61798;48.048;-1.928;2024-03-07T00:11:48;9.52;;;3.67;;
45049;SDS011;61798;48.048;-1.928;2024-03-07T00:13:54;11.32;;;4.32;;
45049;SDS011;61798;48.048;-1.928;2024-03-07T00:16:00;11.60;;;4.30;;
45049;SDS011;61798;48.048;-1.928;2024-03-07T00:18:07;7.75;;;3.08;;
45049;SDS011;61798;48.048;-1.928;2024-03-07T00:20:13;7.00;;;3.13;;
45049;SDS011;61798;48.048;-1.928;2024-03-07T00:22:24;6.53;;;3.08;;
45049;SDS011;61798;48.048;-1.928;2024-03-07T00:24:32;6.90;;;3.50;;
45049;SDS011;61798;48.048;-1.928;2024-03-07T00:26:38;5.93;;;3.03;;
45049;SDS011;61798;48.048;-1.928;2024-03-07T00:28:43;4.47;;;2.67;;
45049;SDS011;61798;48.048;-1.928;2024-03-07T00:30:49;49.00;;;15.25;;
45049;SDS011;61798;48.048;-1.928;2024-03-07T00:32:56;12.60;;;4.97;;
45049;SDS011;61798;48.048;-1.928;2024-03-07T00:35:03;16.02;;;6.07;;
45049;SDS011;61798;48.048;-1.928;2024-03-07T00:37:09;36.58;;;11.13;;
45049;SDS011;61798;48.048;-1.928;2024-03-07T00:39:15;25.02;;;9.55;;
45049;SDS011;61798;48.048;-1.928;2024-03-07T00:41:20;22.77;;;8.80;;
45049;SDS011;61798;48.048;-1.928;2024-03-07T00:43:26;17.73;;;6.45;;
45049;SDS011;61798;48.048;-1.928;2024-03-07T00:45:32;13.10;;;6.40;;
45049;SDS011;61798;48.048;-1.928;2024-03-07T00:47:38;11.35;;;5.10;;
45049;SDS011;61798;48.048;-1.928;2024-03-07T00:49:44;7.70;;;4.00;;
45049;SDS011;61798;48.048;-1.928;2024-03-07T00:51:53;10.82;;;5.28;;
45049;SDS011;61798;48.048;-1.928;2024-03-07T00:53:59;15.48;;;4.35;;
45049;SDS011;61798;48.048;-1.928;2024-03-07T00:56:05;13.02;;;4.80;;
45049;SDS011;61798;48.048;-1.928;2024-03-07T00:58:11;14.30;;;4.28;;
45049;SDS011;61798;48.048;-1.928;2024-03-07T01:00:18;10.98;;;4.22;;
45049;SDS011;61798;48.048;-1.928;2024-03-07T01:02:26;11.95;;;4.30;;
45049;SDS011;61798;48.048;-1.928;2024-03-07T01:04:32;8.77;;;4.13;;
45049;SDS011;61798;48.048;-1.928;2024-03-07T01:06:38;8.70;;;4.35;;
45049;SDS011;61798;48.048;-1.928;2024-03-07T01:08:46;11.60;;;4.35;;
45049;SDS011;61798;48.048;-1.928;2024-03-07T01:10:52;8.18;;;4.22;;
45049;SDS011;61798;48.048;-1.928;2024-03-07T01:12:58;8.80;;;4.22;;
45049;SDS011;61798;48.048;-1.928;2024-03-07T01:15:07;7.95;;;4.32;;
45049;SDS011;61798;48.048;-1.928;2024-03-07T01:17:14;12.18;;;3.60;;
45049;SDS011;61798;48.048;-1.928;2024-03-07T01:19:20;9.98;;;3.45;;
45049;SDS011;61798;48.048;-1.928;2024-03-07T01:21:26;7.22;;;3.83;;
45049;SDS011;61798;48.048;-1.928;2024-03-07T01:23:31;8.18;;;3.08;;
45049;SDS011;61798;48.048;-1.928;2024-03-07T01:25:37;7.20;;;4.03;;
45049;SDS011;61798;48.048;-1.928;2024-03-07T01:27:44;8.38;;;4.07;;
45049;SDS011;61798;48.048;-1.928;2024-03-07T01:29:50;10.27;;;3.83;;
45049;SDS011;61798;48.048;-1.928;2024-03-07T01:31:56;12.50;;;3.60;;
45049;SDS011;61798;48.048;-1.928;2024-03-07T01:34:01;9.77;;;3.90;;
45049;SDS011;61798;48.048;-1.928;2024-03-07T01:36:07;7.97;;;4.05;;
45049;SDS011;61798;48.048;-1.928;2024-03-07T01:38:14;14.18;;;4.00;;
45049;SDS011;61798;48.048;-1.928;2024-03-07T01:40:20;9.05;;;3.50;;
45049;SDS011;61798;48.048;-1.928;2024-03-07T01:42:27;9.15;;;3.70;;
45049;SDS011;61798;48.048;-1.928;2024-03-07T01:44:37;11.38;;;3.35;;
45049;SDS011;61798;48.048;-1.928;2024-03-07T01:46:43;8.52;;;3.80;;
45049;SDS011;61798;48.048;-1.928;2024-03-07T01:48:49;8.65;;;3.55;;
45049;SDS011;61798;48.048;-1.928;2024-03-07T01:50:55;7.72;;;3.40;;
45049;SDS011;61798;48.048;-1.928;2024-03-07T01:53:02;11.10;;;3.80;;
45049;SDS011;61798;48.048;-1.928;2024-03-07T01:55:08;8.50;;;4.03;;
45049;SDS011;61798;48.048;-1.928;2024-03-07T01:57:16;8.30;;;4.18;;
45049;SDS011;61798;48.048;-1.928;2024-03-07T01:59:24;8.10;;;4.03;;
45049;SDS011;61798;48.048;-1.928;2024-03-07T02:01:30;7.82;;;5.03;;
45049;SDS011;61798;48.048;-1.928;2024-03-07T02:03:37;11.40;;;3.90;;
45049;SDS011;61798;48.048;-1.928;2024-03-07T02:05:43;8.70;;;3.55;;
45049;SDS011;61798;48.048;-1.928;2024-03-07T02:07:50;6.57;;;3.58;;
45049;SDS011;61798;48.048;-1.928;2024-03-07T02:10:00;11.38;;;3.38;;
45049;SDS011;61798;48.048;-1.928;2024-03-07T02:12:07;8.20;;;3.38;;
45049;SDS011;61798;48.048;-1.928;2024-03-07T02:14:14;9.50;;;3.75;;
45049;SDS011;61798;48.048;-1.928;2024-03-07T02:16:20;9.27;;;3.60;;
45049;SDS011;61798;48.048;-1.928;2024-03-07T02:18:26;6.15;;;3.40;;
45049;SDS011;61798;48.048;-1.928;2024-03-07T02:20:32;11.88;;;3.65;;
45049;SDS011;61798;48.048;-1.928;2024-03-07T02:22:38;11.32;;;3.92;;
45049;SDS011;61798;48.048;-1.928;2024-03-07T02:24:44;10.50;;;4.28;;
45049;SDS011;61798;48.048;-1.928;2024-03-07T02:26:50;6.18;;;3.20;;
45049;SDS011;61798;48.048;-1.928;2024-03-07T02:28:57;5.97;;;3.42;;
45049;SDS011;61798;48.048;-1.928;2024-03-07T02:31:03;6.60;;;3.10;;
45049;SDS011;61798;48.048;-1.928;2024-03-07T02:33:09;8.38;;;3.58;;
45049;SDS011;61798;48.048;-1.928;2024-03-07T02:35:15;7.00;;;3.00;;
45049;SDS011;61798;48.048;-1.928;2024-03-07T02:37:21;8.75;;;3.25;;
45049;SDS011;61798;48.048;-1.928;2024-03-07T02:39:26;13.07;;;3.10;;
45049;SDS011;61798;48.048;-1.928;2024-03-07T02:41:32;6.85;;;3.08;;
45049;SDS011;61798;48.048;-1.928;2024-03-07T02:43:39;10.00;;;3.60;;
45049;SDS011;61798;48.048;-1.928;2024-03-07T02:45:45;8.25;;;3.45;;
45049;SDS011;61798;48.048;-1.928;2024-03-07T02:47:51;11.38;;;3.63;;
45049;SDS011;61798;48.048;-1.928;2024-03-07T02:49:59;6.22;;;3.50;;
45049;SDS011;61798;48.048;-1.928;2024-03-07T02:52:04;8.85;;;4.07;;
45049;SDS011;61798;48.048;-1.928;2024-03-07T02:54:13;10.32;;;3.30;;
45049;SDS011;61798;48.048;-1.928;2024-03-07T02:56:19;10.07;;;3.20;;
45049;SDS011;61798;48.048;-1.928;2024-03-07T02:58:25;6.63;;;3.50;;
45049;SDS011;61798;48.048;-1.928;2024-03-07T03:00:31;9.23;;;3.75;;
45049;SDS011;61798;48.048;-1.928;2024-03-07T03:02:37;7.55;;;2.92;;
45049;SDS011;61798;48.048;-1.928;2024-03-07T03:04:42;9.13;;;3.20;;
45049;SDS011;61798;48.048;-1.928;2024-03-07T03:06:48;8.18;;;2.90;;
45049;SDS011;61798;48.048;-1.928;2024-03-07T03:08:54;8.70;;;3.55;;
45049;SDS011;61798;48.048;-1.928;2024-03-07T03:11:00;8.38;;;3.33;;
45049;SDS011;61798;48.048;-1.928;2024-03-07T03:13:06;8.63;;;3.17;;
45049;SDS011;61798;48.048;-1.928;2024-03-07T03:15:13;10.00;;;3.30;;
45049;SDS011;61798;48.048;-1.928;2024-03-07T03:17:20;12.75;;;3.10;;
45049;SDS011;61798;48.048;-1.928;2024-03-07T03:19:26;7.53;;;3.20;;
45049;SDS011;61798;48.048;-1.928;2024-03-07T03:21:32;12.07;;;4.00;;
45049;SDS011;61798;48.048;-1.928;2024-03-07T03:23:39;10.23;;;3.20;;
45049;SDS011;61798;48.048;-1.928;2024-03-07T03:25:46;15.45;;;3.30;;
45049;SDS011;61798;48.048;-1.928;2024-03-07T03:27:53;5.80;;;2.95;;
45049;SDS011;61798;48.048;-1.928;2024-03-07T03:29:59;7.03;;;2.92;;
45049;SDS011;61798;48.048;-1.928;2024-03-07T03:32:06;11.18;;;3.58;;
45049;SDS011;61798;48.048;-1.928;2024-03-07T03:34:12;12.18;;;3.05;;
45049;SDS011;61798;48.048;-1.928;2024-03-07T03:36:18;5.45;;;2.63;;
45049;SDS011;61798;48.048;-1.928;2024-03-07T03:38:24;9.23;;;2.97;;
45049;SDS011;61798;48.048;-1.928;2024-03-07T03:40:30;8.65;;;3.78;;
45049;SDS011;61798;48.048;-1.928;2024-03-07T03:42:37;6.00;;;3.90;;
45049;SDS011;61798;48.048;-1.928;2024-03-07T03:44:44;5.57;;;3.30;;
45049;SDS011;61798;48.048;-1.928;2024-03-07T03:46:49;5.65;;;3.50;;
45049;SDS011;61798;48.048;-1.928;2024-03-07T03:48:55;8.38;;;3.10;;
45049;SDS011;61798;48.048;-1.928;2024-03-07T03:51:01;8.13;;;3.53;;
45049;SDS011;61798;48.048;-1.928;2024-03-07T03:53:07;6.85;;;2.80;;
45049;SDS011;61798;48.048;-1.928;2024-03-07T03:55:13;6.45;;;3.10;;
45049;SDS011;61798;48.048;-1.928;2024-03-07T03:57:19;6.35;;;3.25;;
45049;SDS011;61798;48.048;-1.928;2024-03-07T03:59:25;5.20;;;2.35;;
45049;SDS011;61798;48.048;-1.928;2024-03-07T04:01:31;8.05;;;2.90;;
45049;SDS011;61798;48.048;-1.928;2024-03-07T04:03:37;9.45;;;3.20;;
45049;SDS011;61798;48.048;-1.928;2024-03-07T04:05:43;7.07;;;3.08;;
45049;SDS011;61798;48.048;-1.928;2024-03-07T04:07:48;6.88;;;2.78;;
45049;SDS011;61798;48.048;-1.928;2024-03-07T04:09:54;4.82;;;2.42;;
45049;SDS011;61798;48.048;-1.928;2024-03-07T04:12:00;7.07;;;2.30;;
45049;SDS011;61798;48.048;-1.928;2024-03-07T04:14:06;12.23;;;2.45;;
45049;SDS011;61798;48.048;-1.928;2024-03-07T04:16:12;10.55;;;2.50;;
45049;SDS011;61798;48.048;-1.928;2024-03-07T04:18:19;8.50;;;2.95;;
45049;SDS011;61798;48.048;-1.928;2024-03-07T04:20:25;11.30;;;3.10;;
45049;SDS011;61798;48.048;-1.928;2024-03-07T04:22:32;9.35;;;2.53;;
45049;SDS011;61798;48.048;-1.928;2024-03-07T04:24:38;5.00;;;2.90;;
45049;SDS011;61798;48.048;-1.928;2024-03-07T04:26:45;7.28;;;3.00;;
45049;SDS011;61798;48.048;-1.928;2024-03-07T04:28:52;8.25;;;3.20;;
45049;SDS011;61798;48.048;-1.928;2024-03-07T04:30:58;6.72;;;2.88;;
45049;SDS011;61798;48.048;-1.928;2024-03-07T04:33:04;7.70;;;2.92;;
45049;SDS011;61798;48.048;-1.928;2024-03-07T04:35:11;8.45;;;2.58;;
45049;SDS011;61798;48.048;-1.928;2024-03-07T04:37:17;5.43;;;2.70;;
45049;SDS011;61798;48.048;-1.928;2024-03-07T04:39:23;9.23;;;2.55;;
45049;SDS011;61798;48.048;-1.928;2024-03-07T04:41:47;7.57;;;3.17;;
45049;SDS011;61798;48.048;-1.928;2024-03-07T04:43:53;12.73;;;3.28;;
45049;SDS011;61798;48.048;-1.928;2024-03-07T04:45:59;9.02;;;3.30;;
45049;SDS011;61798;48.048;-1.928;2024-03-07T04:48:05;9.45;;;2.95;;
45049;SDS011;61798;48.048;-1.928;2024-03-07T04:50:12;6.22;;;3.33;;
45049;SDS011;61798;48.048;-1.928;2024-03-07T04:52:18;6.57;;;3.17;;
45049;SDS011;61798;48.048;-1.928;2024-03-07T04:54:24;12.98;;;2.90;;
45049;SDS011;61798;48.048;-1.928;2024-03-07T04:56:31;10.00;;;3.20;;
45049;SDS011;61798;48.048;-1.928;2024-03-07T04:58:37;8.15;;;2.58;;
45049;SDS011;61798;48.048;-1.928;2024-03-07T05:00:42;6.38;;;3.10;;
45049;SDS011;61798;48.048;-1.928;2024-03-07T05:02:48;7.22;;;2.67;;
45049;SDS011;61798;48.048;-1.928;2024-03-07T05:04:55;7.28;;;3.72;;
45049;SDS011;61798;48.048;-1.928;2024-03-07T05:07:01;12.73;;;3.08;;
45049;SDS011;61798;48.048;-1.928;2024-03-07T05:09:07;9.70;;;4.10;;
45049;SDS011;61798;48.048;-1.928;2024-03-07T05:11:31;13.32;;;3.75;;
45049;SDS011;61798;48.048;-1.928;2024-03-07T05:13:37;8.10;;;3.20;;
45049;SDS011;61798;48.048;-1.928;2024-03-07T05:15:43;13.75;;;3.70;;
45049;SDS011;61798;48.048;-1.928;2024-03-07T05:17:49;8.23;;;4.00;;
45049;SDS011;61798;48.048;-1.928;2024-03-07T05:19:55;13.27;;;4.00;;
45049;SDS011;61798;48.048;-1.928;2024-03-07T05:22:01;13.52;;;5.00;;
45049;SDS011;61798;48.048;-1.928;2024-03-07T05:24:10;11.45;;;4.72;;
45049;SDS011;61798;48.048;-1.928;2024-03-07T05:26:16;13.93;;;4.93;;
45049;SDS011;61798;48.048;-1.928;2024-03-07T05:28:22;8.57;;;3.45;;
45049;SDS011;61798;48.048;-1.928;2024-03-07T05:30:28;13.85;;;3.63;;
45049;SDS011;61798;48.048;-1.928;2024-03-07T05:32:34;9.05;;;3.67;;
45049;SDS011;61798;48.048;-1.928;2024-03-07T05:34:40;10.43;;;3.22;;
45049;SDS011;61798;48.048;-1.928;2024-03-07T05:36:46;11.35;;;3.53;;
45049;SDS011;61798;48.048;-1.928;2024-03-07T05:38:52;6.70;;;3.08;;
45049;SDS011;61798;48.048;-1.928;2024-03-07T05:40:58;7.15;;;3.13;;
45049;SDS011;61798;48.048;-1.928;2024-03-07T05:43:03;11.15;;;3.33;;
45049;SDS011;61798;48.048;-1.928;2024-03-07T05:45:09;7.35;;;3.70;;
45049;SDS011;61798;48.048;-1.928;2024-03-07T05:47:15;12.98;;;3.53;;
45049;SDS011;61798;48.048;-1.928;2024-03-07T05:49:22;9.88;;;3.67;;
45049;SDS011;61798;48.048;-1.928;2024-03-07T05:51:28;8.20;;;3.08;;
45049;SDS011;61798;48.048;-1.928;2024-03-07T05:53:34;9.25;;;3.47;;
45049;SDS011;61798;48.048;-1.928;2024-03-07T05:55:40;13.95;;;4.28;;
45049;SDS011;61798;48.048;-1.928;2024-03-07T05:57:46;9.63;;;4.70;;
45049;SDS011;61798;48.048;-1.928;2024-03-07T05:59:52;10.57;;;4.47;;
45049;SDS011;61798;48.048;-1.928;2024-03-07T06:01:58;11.48;;;4.30;;
45049;SDS011;61798;48.048;-1.928;2024-03-07T06:04:05;9.50;;;4.45;;
45049;SDS011;61798;48.048;-1.928;2024-03-07T06:06:11;12.98;;;4.90;;
45049;SDS011;61798;48.048;-1.928;2024-03-07T06:08:18;11.82;;;4.45;;
45049;SDS011;61798;48.048;-1.928;2024-03-07T06:10:25;14.90;;;4.25;;
45049;SDS011;61798;48.048;-1.928;2024-03-07T06:12:31;8.30;;;3.53;;
45049;SDS011;61798;48.048;-1.928;2024-03-07T06:14:37;15.43;;;5.28;;
45049;SDS011;61798;48.048;-1.928;2024-03-07T06:16:43;12.05;;;4.47;;
45049;SDS011;61798;48.048;-1.928;2024-03-07T06:18:49;19.73;;;5.50;;
45049;SDS011;61798;48.048;-1.928;2024-03-07T06:20:57;10.20;;;4.25;;
45049;SDS011;61798;48.048;-1.928;2024-03-07T06:23:03;8.05;;;3.72;;
45049;SDS011;61798;48.048;-1.928;2024-03-07T06:25:12;9.52;;;3.83;;
45049;SDS011;61798;48.048;-1.928;2024-03-07T06:27:24;11.20;;;3.50;;
45049;SDS011;61798;48.048;-1.928;2024-03-07T06:29:42;9.18;;;3.17;;
45049;SDS011;61798;48.048;-1.928;2024-03-07T06:31:48;6.97;;;3.08;;
45049;SDS011;61798;48.048;-1.928;2024-03-07T06:33:55;8.75;;;3.38;;
45049;SDS011;61798;48.048;-1.928;2024-03-07T06:36:01;16.02;;;3.90;;
45049;SDS011;61798;48.048;-1.928;2024-03-07T06:38:08;9.13;;;2.85;;
45049;SDS011;61798;48.048;-1.928;2024-03-07T06:40:14;8.07;;;2.95;;
45049;SDS011;61798;48.048;-1.928;2024-03-07T06:42:26;6.47;;;2.85;;
45049;SDS011;61798;48.048;-1.928;2024-03-07T06:44:32;7.20;;;3.08;;
45049;SDS011;61798;48.048;-1.928;2024-03-07T06:46:38;5.82;;;3.33;;
45049;SDS011;61798;48.048;-1.928;2024-03-07T06:48:44;7.47;;;3.20;;
45049;SDS011;61798;48.048;-1.928;2024-03-07T06:50:49;8.35;;;3.40;;
45049;SDS011;61798;48.048;-1.928;2024-03-07T06:52:56;6.82;;;2.97;;
45049;SDS011;61798;48.048;-1.928;2024-03-07T06:55:02;7.72;;;3.60;;
45049;SDS011;61798;48.048;-1.928;2024-03-07T06:57:09;8.75;;;3.38;;
45049;SDS011;61798;48.048;-1.928;2024-03-07T06:59:15;12.23;;;3.47;;
45049;SDS011;61798;48.048;-1.928;2024-03-07T07:01:21;6.90;;;3.50;;
45049;SDS011;61798;48.048;-1.928;2024-03-07T07:03:26;8.52;;;3.28;;
45049;SDS011;61798;48.048;-1.928;2024-03-07T07:05:35;5.07;;;2.88;;
45049;SDS011;61798;48.048;-1.928;2024-03-07T07:07:41;6.72;;;3.45;;
45049;SDS011;61798;48.048;-1.928;2024-03-07T07:09:47;6.07;;;3.13;;
45049;SDS011;61798;48.048;-1.928;2024-03-07T07:11:56;11.80;;;3.10;;
45049;SDS011;61798;48.048;-1.928;2024-03-07T07:14:02;7.43;;;3.03;;
45049;SDS011;61798;48.048;-1.928;2024-03-07T07:16:08;12.55;;;3.47;;
45049;SDS011;61798;48.048;-1.928;2024-03-07T07:18:15;6.20;;;3.03;;
45049;SDS011;61798;48.048;-1.928;2024-03-07T07:20:21;6.75;;;3.17;;
45049;SDS011;61798;48.048;-1.928;2024-03-07T07:22:29;8.73;;;3.00;;
45049;SDS011;61798;48.048;-1.928;2024-03-07T07:24:35;5.90;;;3.13;;
45049;SDS011;61798;48.048;-1.928;2024-03-07T07:26:43;6.70;;;3.08;;
45049;SDS011;61798;48.048;-1.928;2024-03-07T07:28:49;12.20;;;3.17;;
45049;SDS011;61798;48.048;-1.928;2024-03-07T07:30:55;5.88;;;2.78;;
45049;SDS011;61798;48.048;-1.928;2024-03-07T07:33:01;8.43;;;3.25;;
45049;SDS011;61798;48.048;-1.928;2024-03-07T07:35:08;6.65;;;3.13;;
45049;SDS011;61798;48.048;-1.928;2024-03-07T07:37:16;10.45;;;2.92;;
45049;SDS011;61798;48.048;-1.928;2024-03-07T07:39:22;8.52;;;2.90;;
45049;SDS011;61798;48.048;-1.928;2024-03-07T07:41:28;8.65;;;3.17;;
45049;SDS011;61798;48.048;-1.928;2024-03-07T07:43:36;8.15;;;3.42;;
45049;SDS011;61798;48.048;-1.928;2024-03-07T07:45:42;9.02;;;2.92;;
45049;SDS011;61798;48.048;-1.928;2024-03-07T07:47:48;7.60;;;2.75;;
45049;SDS011;61798;48.048;-1.928;2024-03-07T07:49:55;8.40;;;2.55;;
45049;SDS011;61798;48.048;-1.928;2024-03-07T07:52:01;7.35;;;2.92;;
45049;SDS011;61798;48.048;-1.928;2024-03-07T07:54:07;6.93;;;3.08;;
45049;SDS011;61798;48.048;-1.928;2024-03-07T07:56:14;7.15;;;2.67;;
45049;SDS011;61798;48.048;-1.928;2024-03-07T07:58:20;8.82;;;2.97;;
45049;SDS011;61798;48.048;-1.928;2024-03-07T08:00:27;6.57;;;2.63;;
45049;SDS011;61798;48.048;-1.928;2024-03-07T08:02:36;5.80;;;2.90;;
45049;SDS011;61798;48.048;-1.928;2024-03-07T08:04:42;6.80;;;2.67;;
45049;SDS011;61798;48.048;-1.928;2024-03-07T08:06:48;5.40;;;2.97;;
45049;SDS011;61798;48.048;-1.928;2024-03-07T08:08:54;15.35;;;2.90;;
45049;SDS011;61798;48.048;-1.928;2024-03-07T08:11:00;5.60;;;2.53;;
45049;SDS011;61798;48.048;-1.928;2024-03-07T08:13:06;6.32;;;2.95;;
45049;SDS011;61798;48.048;-1.928;2024-03-07T08:15:13;8.65;;;3.35;;
45049;SDS011;61798;48.048;-1.928;2024-03-07T08:17:19;10.90;;;3.70;;
45049;SDS011;61798;48.048;-1.928;2024-03-07T08:19:26;6.07;;;2.78;;
45049;SDS011;61798;48.048;-1.928;2024-03-07T08:21:32;7.18;;;2.80;;
45049;SDS011;61798;48.048;-1.928;2024-03-07T08:23:37;4.68;;;2.70;;
45049;SDS011;61798;48.048;-1.928;2024-03-07T08:25:43;4.93;;;2.38;;
45049;SDS011;61798;48.048;-1.928;2024-03-07T08:27:50;2.80;;;1.80;;
45049;SDS011;61798;48.048;-1.928;2024-03-07T08:29:56;5.95;;;2.60;;
45049;SDS011;61798;48.048;-1.928;2024-03-07T08:32:02;6.78;;;2.42;;
45049;SDS011;61798;48.048;-1.928;2024-03-07T08:34:08;5.38;;;2.15;;
45049;SDS011;61798;48.048;-1.928;2024-03-07T08:36:14;8.20;;;2.40;;
45049;SDS011;61798;48.048;-1.928;2024-03-07T08:38:20;4.75;;;2.08;;
45049;SDS011;61798;48.048;-1.928;2024-03-07T08:40:26;8.57;;;1.80;;
45049;SDS011;61798;48.048;-1.928;2024-03-07T08:42:37;9.57;;;2.53;;
45049;SDS011;61798;48.048;-1.928;2024-03-07T08:44:44;9.75;;;2.30;;
45049;SDS011;61798;48.048;-1.928;2024-03-07T08:46:50;3.53;;;2.25;;
45049;SDS011;61798;48.048;-1.928;2024-03-07T08:48:55;10.05;;;2.85;;
45049;SDS011;61798;48.048;-1.928;2024-03-07T08:51:01;7.30;;;2.28;;
45049;SDS011;61798;48.048;-1.928;2024-03-07T08:53:07;5.80;;;2.90;;
45049;SDS011;61798;48.048;-1.928;2024-03-07T08:55:18;4.22;;;2.35;;
45049;SDS011;61798;48.048;-1.928;2024-03-07T08:57:26;4.65;;;2.47;;
45049;SDS011;61798;48.048;-1.928;2024-03-07T08:59:31;6.35;;;2.50;;
45049;SDS011;61798;48.048;-1.928;2024-03-07T09:01:38;6.60;;;3.50;;
45049;SDS011;61798;48.048;-1.928;2024-03-07T09:03:44;4.85;;;2.58;;
45049;SDS011;61798;48.048;-1.928;2024-03-07T09:05:50;7.93;;;2.92;;
45049;SDS011;61798;48.048;-1.928;2024-03-07T09:07:57;10.45;;;2.22;;
45049;SDS011;61798;48.048;-1.928;2024-03-07T09:10:04;7.90;;;3.13;;
45049;SDS011;61798;48.048;-1.928;2024-03-07T09:12:10;7.28;;;2.58;;
45049;SDS011;61798;48.048;-1.928;2024-03-07T09:14:16;6.25;;;2.13;;
45049;SDS011;61798;48.048;-1.928;2024-03-07T09:16:22;3.25;;;1.65;;
45049;SDS011;61798;48.048;-1.928;2024-03-07T09:18:28;4.40;;;2.03;;
45049;SDS011;61798;48.048;-1.928;2024-03-07T09:20:34;4.00;;;2.47;;
45049;SDS011;61798;48.048;-1.928;2024-03-07T09:22:43;7.38;;;2.22;;
45049;SDS011;61798;48.048;-1.928;2024-03-07T09:24:50;4.47;;;2.33;;
45049;SDS011;61798;48.048;-1.928;2024-03-07T09:26:56;3.45;;;1.67;;
45049;SDS011;61798;48.048;-1.928;2024-03-07T09:29:02;5.22;;;2.30;;
45049;SDS011;61798;48.048;-1.928;2024-03-07T09:31:11;3.67;;;1.90;;
45049;SDS011;61798;48.048;-1.928;2024-03-07T09:33:20;5.60;;;2.10;;
45049;SDS011;61798;48.048;-1.928;2024-03-07T09:35:26;3.75;;;2.03;;
45049;SDS011;61798;48.048;-1.928;2024-03-07T09:37:32;4.70;;;2.40;;
45049;SDS011;61798;48.048;-1.928;2024-03-07T09:39:38;5.40;;;2.55;;
45049;SDS011;61798;48.048;-1.928;2024-03-07T09:41:44;3.55;;;2.13;;
45049;SDS011;61798;48.048;-1.928;2024-03-07T09:43:51;11.43;;;2.63;;
45049;SDS011;61798;48.048;-1.928;2024-03-07T09:46:01;7.07;;;2.00;;
45049;SDS011;61798;48.048;-1.928;2024-03-07T09:48:08;7.32;;;2.28;;
45049;SDS011;61798;48.048;-1.928;2024-03-07T09:50:18;5.25;;;2.20;;
45049;SDS011;61798;48.048;-1.928;2024-03-07T09:52:27;8.63;;;2.27;;
45049;SDS011;61798;48.048;-1.928;2024-03-07T09:54:34;5.30;;;2.50;;
45049;SDS011;61798;48.048;-1.928;2024-03-07T09:56:40;4.53;;;1.95;;
45049;SDS011;61798;48.048;-1.928;2024-03-07T09:58:48;6.15;;;2.13;;
45049;SDS011;61798;48.048;-1.928;2024-03-07T10:00:55;3.42;;;1.80;;
45049;SDS011;61798;48.048;-1.928;2024-03-07T10:03:05;4.82;;;1.60;;
45049;SDS011;61798;48.048;-1.928;2024-03-07T10:05:13;7.88;;;1.70;;
45049;SDS011;61798;48.048;-1.928;2024-03-07T10:07:22;7.05;;;2.13;;
45049;SDS011;61798;48.048;-1.928;2024-03-07T10:09:28;5.30;;;1.90;;
45049;SDS011;61798;48.048;-1.928;2024-03-07T10:11:37;3.88;;;2.00;;
45049;SDS011;61798;48.048;-1.928;2024-03-07T10:13:43;3.00;;;1.75;;
45049;SDS011;61798;48.048;-1.928;2024-03-07T10:15:52;7.43;;;2.20;;
45049;SDS011;61798;48.048;-1.928;2024-03-07T10:17:59;4.32;;;1.55;;
45049;SDS011;61798;48.048;-1.928;2024-03-07T10:20:06;2.33;;;1.30;;
45049;SDS011;61798;48.048;-1.928;2024-03-07T10:22:15;7.88;;;1.80;;
45049;SDS011;61798;48.048;-1.928;2024-03-07T10:24:24;2.92;;;1.83;;
45049;SDS011;61798;48.048;-1.928;2024-03-07T10:26:30;4.00;;;1.58;;
45049;SDS011;61798;48.048;-1.928;2024-03-07T10:28:39;3.08;;;1.40;;
45049;SDS011;61798;48.048;-1.928;2024-03-07T10:30:45;3.15;;;1.45;;
45049;SDS011;61798;48.048;-1.928;2024-03-07T10:32:58;2.58;;;1.30;;
45049;SDS011;61798;48.048;-1.928;2024-03-07T10:35:07;2.67;;;1.35;;
45049;SDS011;61798;48.048;-1.928;2024-03-07T10:37:13;4.45;;;1.75;;
45049;SDS011;61798;48.048;-1.928;2024-03-07T10:39:21;3.13;;;1.23;;
45049;SDS011;61798;48.048;-1.928;2024-03-07T10:41:28;5.80;;;1.88;;
45049;SDS011;61798;48.048;-1.928;2024-03-07T10:43:36;4.28;;;1.30;;
45049;SDS011;61798;48.048;-1.928;2024-03-07T10:45:45;3.58;;;1.23;;
45049;SDS011;61798;48.048;-1.928;2024-03-07T10:47:55;5.47;;;1.52;;
45049;SDS011;61798;48.048;-1.928;2024-03-07T10:50:16;2.85;;;1.30;;
45049;SDS011;61798;48.048;-1.928;2024-03-07T10:53:10;2.72;;;1.20;;
45049;SDS011;61798;48.048;-1.928;2024-03-07T10:55:13;2.75;;;1.23;;
45049;SDS011;61798;48.048;-1.928;2024-03-07T10:57:40;1.55;;;1.15;;
45049;SDS011;61798;48.048;-1.928;2024-03-07T11:00:00;4.28;;;1.20;;
45049;SDS011;61798;48.048;-1.928;2024-03-07T11:02:29;6.22;;;1.38;;
45049;SDS011;61798;48.048;-1.928;2024-03-07T11:04:42;2.28;;;1.38;;
45049;SDS011;61798;48.048;-1.928;2024-03-07T11:06:48;2.15;;;1.08;;
45049;SDS011;61798;48.048;-1.928;2024-03-07T11:08:55;2.35;;;1.00;;
45049;SDS011;61798;48.048;-1.928;2024-03-07T11:11:02;3.17;;;1.10;;
45049;SDS011;61798;48.048;-1.928;2024-03-07T11:13:09;5.35;;;1.30;;
45049;SDS011;61798;48.048;-1.928;2024-03-07T11:15:18;2.97;;;1.55;;
45049;SDS011;61798;48.048;-1.928;2024-03-07T11:17:28;2.58;;;1.27;;
45049;SDS011;61798;48.048;-1.928;2024-03-07T11:19:35;2.53;;;1.25;;
45049;SDS011;61798;48.048;-1.928;2024-03-07T11:21:45;2.67;;;1.10;;
45049;SDS011;61798;48.048;-1.928;2024-03-07T11:23:51;4.32;;;0.98;;
45049;SDS011;61798;48.048;-1.928;2024-03-07T11:26:02;3.55;;;1.25;;
45049;SDS011;61798;48.048;-1.928;2024-03-07T11:28:17;5.65;;;1.20;;
45049;SDS011;61798;48.048;-1.928;2024-03-07T11:30:25;1.75;;;1.00;;
45049;SDS011;61798;48.048;-1.928;2024-03-07T11:32:34;1.75;;;0.90;;
45049;SDS011;61798;48.048;-1.928;2024-03-07T11:34:42;2.10;;;1.17;;
45049;SDS011;61798;48.048;-1.928;2024-03-07T11:36:52;2.47;;;1.27;;
45049;SDS011;61798;48.048;-1.928;2024-03-07T11:39:01;2.63;;;1.02;;
45049;SDS011;61798;48.048;-1.928;2024-03-07T11:41:07;4.00;;;1.40;;
45049;SDS011;61798;48.048;-1.928;2024-03-07T11:43:18;5.35;;;1.05;;
45049;SDS011;61798;48.048;-1.928;2024-03-07T11:45:24;1.08;;;0.82;;
45049;SDS011;61798;48.048;-1.928;2024-03-07T11:47:37;1.65;;;1.08;;
45049;SDS011;61798;48.048;-1.928;2024-03-07T11:49:44;1.48;;;0.98;;
45049;SDS011;61798;48.048;-1.928;2024-03-07T11:51:54;4.05;;;1.35;;
45049;SDS011;61798;48.048;-1.928;2024-03-07T11:53:59;2.25;;;1.10;;
45049;SDS011;61798;48.048;-1.928;2024-03-07T11:56:05;2.97;;;1.35;;
45049;SDS011;61798;48.048;-1.928;2024-03-07T11:58:15;1.55;;;1.00;;
45049;SDS011;61798;48.048;-1.928;2024-03-07T12:00:27;6.78;;;1.63;;
45049;SDS011;61798;48.048;-1.928;2024-03-07T12:02:37;5.25;;;1.85;;
45049;SDS011;61798;48.048;-1.928;2024-03-07T12:04:43;9.02;;;2.92;;
45049;SDS011;61798;48.048;-1.928;2024-03-07T12:06:50;2.70;;;1.40;;
45049;SDS011;61798;48.048;-1.928;2024-03-07T12:08:57;3.45;;;1.55;;
45049;SDS011;61798;48.048;-1.928;2024-03-07T12:11:04;2.05;;;1.35;;
45049;SDS011;61798;48.048;-1.928;2024-03-07T12:13:13;4.03;;;1.10;;
45049;SDS011;61798;48.048;-1.928;2024-03-07T12:15:21;3.80;;;1.30;;
45049;SDS011;61798;48.048;-1.928;2024-03-07T12:17:27;1.60;;;1.02;;
45049;SDS011;61798;48.048;-1.928;2024-03-07T12:19:35;2.95;;;1.10;;
45049;SDS011;61798;48.048;-1.928;2024-03-07T12:21:46;2.10;;;1.05;;
45049;SDS011;61798;48.048;-1.928;2024-03-07T12:23:52;2.33;;;1.40;;
45049;SDS011;61798;48.048;-1.928;2024-03-07T12:25:59;2.53;;;1.20;;
45049;SDS011;61798;48.048;-1.928;2024-03-07T12:28:10;3.67;;;1.20;;
45049;SDS011;61798;48.048;-1.928;2024-03-07T12:30:17;3.03;;;1.25;;
45049;SDS011;61798;48.048;-1.928;2024-03-07T12:32:24;2.33;;;1.13;;